createdAt,value
2023-03-15T00:03:12.075Z,3.20
2023-03-15T00:13:37.905Z,3.40
2023-03-15T00:24:04.533Z,2.80
2023-03-15T00:34:30.240Z,2.50
2023-03-15T00:44:56.798Z,2.30
2023-03-15T00:55:23.031Z,2.20
2023-03-15T01:05:48.451Z,1.40
2023-03-15T01:16:15.935Z,2.50
2023-03-15T01:26:42.128Z,2.50
2023-03-15T01:37:07.809Z,2.70
2023-03-15T01:47:33.323Z,2.00
2023-03-15T01:58:02.159Z,2.80
2023-03-15T02:08:32.899Z,3.30
2023-03-15T02:18:58.666Z,3.10
2023-03-15T02:29:25.486Z,2.80
2023-03-15T02:39:51.444Z,2.60
2023-03-15T02:50:17.460Z,2.10
2023-03-15T03:00:43.151Z,2.40
2023-03-15T03:11:09.507Z,2.90
2023-03-15T03:21:35.424Z,3.30
2023-03-15T03:32:01.713Z,3.50
2023-03-15T03:42:27.755Z,2.90
2023-03-15T03:52:53.543Z,4.00
2023-03-15T04:03:19.578Z,2.50
2023-03-15T04:13:45.940Z,3.80
2023-03-15T04:24:11.974Z,3.50
2023-03-15T04:34:39.053Z,3.50
2023-03-15T04:45:05.570Z,5.30
2023-03-15T04:55:31.101Z,4.30
2023-03-15T05:05:56.834Z,4.80
2023-03-15T05:16:22.774Z,4.00
2023-03-15T05:26:48.591Z,4.90
2023-03-15T05:37:13.950Z,4.80
2023-03-15T05:47:39.659Z,4.20
2023-03-15T05:58:04.954Z,4.10
2023-03-15T06:08:30.638Z,3.20
2023-03-15T06:18:56.694Z,2.40
2023-03-15T06:29:22.408Z,3.50
2023-03-15T06:39:48.568Z,2.00
2023-03-15T06:50:15.255Z,2.60
2023-03-15T07:00:41.899Z,2.20
2023-03-15T07:11:08.407Z,3.40
2023-03-15T07:21:34.200Z,3.80
2023-03-15T07:32:01.519Z,3.50
2023-03-15T07:42:26.870Z,2.20
2023-03-15T07:52:52.526Z,3.20
2023-03-15T08:03:27.738Z,3.70
2023-03-15T08:13:53.743Z,2.40
2023-03-15T08:24:19.236Z,1.90
2023-03-15T08:34:45.565Z,2.80
2023-03-15T08:45:12.694Z,2.70
2023-03-15T08:55:38.747Z,2.50
2023-03-15T09:06:04.623Z,3.60
2023-03-15T09:16:31.358Z,2.80
2023-03-15T09:26:57.097Z,2.30
2023-03-15T09:37:22.985Z,2.50
2023-03-15T09:47:58.294Z,2.10
2023-03-15T09:58:29.538Z,2.60
2023-03-15T10:08:59.706Z,2.60
2023-03-15T10:19:33.466Z,1.60
2023-03-15T10:30:01.263Z,1.30
2023-03-15T10:40:47.343Z,2.00
2023-03-15T10:51:22.461Z,3.70
2023-03-15T11:01:50.281Z,1.80
2023-03-15T11:12:25.737Z,1.80
2023-03-15T11:22:52.972Z,2.30
2023-03-15T11:33:33.596Z,1.70
2023-03-15T11:44:11.416Z,1.80
2023-03-15T11:54:37.660Z,2.10
2023-03-15T12:05:17.595Z,2.10
2023-03-15T12:15:48.885Z,4.00
2023-03-15T12:26:26.067Z,1.70
2023-03-15T12:36:57.645Z,2.20
2023-03-15T12:47:23.566Z,2.30
2023-03-15T12:57:54.092Z,2.40
2023-03-15T13:08:25.744Z,2.50
2023-03-15T13:18:59.656Z,3.30
2023-03-15T13:29:31.026Z,2.30
2023-03-15T13:40:01.052Z,2.40
2023-03-15T13:50:27.015Z,2.60
2023-03-15T14:00:59.638Z,3.40
2023-03-15T14:11:38.540Z,2.20
2023-03-15T14:22:14.145Z,3.40
2023-03-15T14:32:52.359Z,3.90
2023-03-15T14:43:18.052Z,1.70
2023-03-15T14:53:44.587Z,1.20
2023-03-15T15:04:12.280Z,1.60
2023-03-15T15:14:38.143Z,1.40
2023-03-15T15:25:04.360Z,1.80
2023-03-15T15:35:30.926Z,2.10
2023-03-15T15:45:56.888Z,1.80
2023-03-15T15:56:24.270Z,2.10
2023-03-15T16:06:55.183Z,2.20
2023-03-15T16:17:22.883Z,1.90
2023-03-15T16:27:48.700Z,2.70
2023-03-15T16:38:24.267Z,1.60
2023-03-15T16:48:50.345Z,3.00
2023-03-15T16:59:18.772Z,5.00
2023-03-15T17:09:46.845Z,3.60
2023-03-15T17:20:15.124Z,3.80
2023-03-15T17:30:41.176Z,6.10
2023-03-15T17:41:08.102Z,3.50
2023-03-15T17:51:35.909Z,17.50
2023-03-15T18:02:01.927Z,28.20
2023-03-15T18:12:27.869Z,34.80
2023-03-15T18:22:53.707Z,31.90
2023-03-15T18:33:19.480Z,26.40
2023-03-15T18:43:49.696Z,32.20
2023-03-15T18:54:15.168Z,21.40
2023-03-15T19:04:40.844Z,17.90
2023-03-15T19:15:07.060Z,21.90
2023-03-15T19:25:32.920Z,35.50
2023-03-15T19:35:58.947Z,43.10
2023-03-15T19:46:24.717Z,32.80
2023-03-15T19:56:50.211Z,35.50
2023-03-15T20:07:15.778Z,37.10
2023-03-15T20:17:42.708Z,35.30
2023-03-15T20:28:08.610Z,33.80
2023-03-15T20:38:37.242Z,20.80
2023-03-15T20:49:03.186Z,15.80
2023-03-15T20:59:28.755Z,12.30
2023-03-15T21:09:54.741Z,11.00
2023-03-15T21:20:20.739Z,10.40
2023-03-15T21:30:46.711Z,12.30
2023-03-15T21:41:12.816Z,9.30
2023-03-15T21:51:38.910Z,10.70
2023-03-15T22:02:04.658Z,11.10
2023-03-15T22:12:31.168Z,10.50
2023-03-15T22:22:57.042Z,10.80
2023-03-15T22:33:23.756Z,11.70
2023-03-15T22:43:49.288Z,12.10
2023-03-15T22:54:14.836Z,9.80
2023-03-15T23:04:41.183Z,11.60
2023-03-15T23:15:08.015Z,11.40
2023-03-15T23:25:36.016Z,11.10
2023-03-15T23:36:01.957Z,10.50
2023-03-15T23:46:28.358Z,12.30
2023-03-15T23:56:54.108Z,11.80
